createdAt,value
2019-05-01T00:00:29.057Z,29.57
2019-05-01T00:03:08.556Z,30.30
2019-05-01T00:05:48.575Z,29.10
2019-05-01T00:08:17.925Z,29.98
2019-05-01T00:10:47.251Z,27.82
2019-05-01T00:13:17.124Z,31.10
2019-05-01T00:15:47.806Z,28.40
2019-05-01T00:18:17.157Z,29.30
2019-05-01T00:20:46.452Z,31.50
2019-05-01T00:23:15.803Z,27.65
2019-05-01T00:25:45.133Z,28.23
2019-05-01T00:28:15.768Z,30.75
2019-05-01T00:30:45.493Z,31.10
2019-05-01T00:33:14.789Z,27.55
2019-05-01T00:35:44.085Z,31.23
2019-05-01T00:38:13.790Z,28.95
2019-05-01T00:40:43.125Z,29.15
2019-05-01T00:43:12.424Z,32.40
2019-05-01T00:45:42.062Z,27.50
2019-05-01T00:48:12.223Z,28.42
2019-05-01T00:50:41.521Z,30.20
2019-05-01T00:53:10.862Z,28.10
2019-05-01T00:55:51.057Z,28.52
2019-05-01T00:58:28.285Z,29.85
2019-05-01T01:01:05.361Z,29.10
2019-05-01T01:03:34.747Z,29.98
2019-05-01T01:06:05.031Z,29.12
2019-05-01T01:08:34.738Z,31.45
2019-05-01T01:11:04.190Z,30.23
2019-05-01T01:13:33.536Z,28.85
2019-05-01T01:16:03.158Z,29.45
2019-05-01T01:18:35.447Z,32.70
2019-05-01T01:21:05.249Z,30.95
2019-05-01T01:23:34.780Z,34.90
2019-05-01T01:26:04.192Z,31.62
2019-05-01T01:28:33.754Z,34.38
2019-05-01T01:31:03.055Z,30.75
2019-05-01T01:33:32.432Z,29.30
2019-05-01T01:36:01.767Z,29.60
2019-05-01T01:38:31.057Z,29.02
2019-05-01T01:41:00.737Z,31.50
2019-05-01T01:43:37.632Z,29.10
2019-05-01T01:46:12.798Z,33.88
2019-05-01T01:48:42.226Z,28.38
2019-05-01T01:51:11.825Z,29.02
2019-05-01T01:53:41.626Z,30.15
2019-05-01T01:56:10.993Z,29.07
2019-05-01T01:58:40.499Z,31.33
2019-05-01T02:01:26.645Z,33.02
2019-05-01T02:04:00.267Z,29.70
2019-05-01T02:06:29.571Z,33.23
2019-05-01T02:08:59.211Z,31.40
2019-05-01T02:11:28.553Z,31.12
2019-05-01T02:13:59.026Z,29.05
2019-05-01T02:16:28.444Z,30.48
2019-05-01T02:18:57.743Z,30.50
2019-05-01T02:21:27.079Z,32.80
2019-05-01T02:23:56.722Z,31.05
2019-05-01T02:26:28.098Z,32.50
2019-05-01T02:29:05.971Z,30.00
2019-05-01T02:31:43.121Z,32.30
2019-05-01T02:34:13.362Z,32.42
2019-05-01T02:36:44.473Z,32.55
2019-05-01T02:39:15.583Z,31.30
2019-05-01T02:41:46.938Z,33.80
2019-05-01T02:44:29.929Z,32.08
2019-05-01T02:47:03.547Z,32.15
2019-05-01T02:49:49.049Z,32.85
2019-05-01T02:52:22.004Z,32.63
2019-05-01T02:54:54.707Z,40.05
2019-05-01T02:57:27.600Z,32.83
2019-05-01T02:59:59.749Z,32.00
2019-05-01T03:02:31.272Z,32.30
2019-05-01T03:05:01.387Z,32.38
2019-05-01T03:07:35.312Z,31.97
2019-05-01T03:10:09.534Z,32.88
2019-05-01T03:12:42.749Z,31.27
2019-05-01T03:15:15.256Z,34.40
2019-05-01T03:17:50.115Z,32.80
2019-05-01T03:20:21.316Z,33.58
2019-05-01T03:23:10.771Z,33.70
2019-05-01T03:25:40.601Z,32.55
2019-05-01T03:28:10.531Z,33.28
2019-05-01T03:30:40.043Z,34.30
2019-05-01T03:33:09.391Z,32.13
2019-05-01T03:35:38.862Z,34.95
2019-05-01T03:38:08.297Z,35.60
2019-05-01T03:40:38.082Z,33.60
2019-05-01T03:43:08.174Z,34.43
2019-05-01T03:45:39.281Z,34.33
2019-05-01T03:48:09.919Z,35.83
2019-05-01T03:50:39.754Z,32.73
2019-05-01T03:53:09.144Z,35.23
2019-05-01T03:55:38.757Z,33.50
2019-05-01T03:58:08.230Z,33.42
2019-05-01T04:00:39.760Z,37.78
2019-05-01T04:03:23.946Z,36.50
2019-05-01T04:05:53.760Z,34.20
2019-05-01T04:08:23.063Z,34.00
2019-05-01T04:10:52.899Z,34.23
2019-05-01T04:13:22.303Z,38.58
2019-05-01T04:15:53.689Z,36.63
2019-05-01T04:18:24.299Z,35.17
2019-05-01T04:20:53.913Z,37.58
2019-05-01T04:23:23.379Z,37.65
2019-05-01T04:25:54.276Z,38.67
2019-05-01T04:28:37.559Z,35.15
2019-05-01T04:31:14.826Z,35.45
2019-05-01T04:33:45.902Z,35.33
2019-05-01T04:36:19.621Z,38.00
2019-05-01T04:38:48.986Z,38.83
2019-05-01T04:41:19.071Z,35.05
2019-05-01T04:43:48.685Z,34.70
2019-05-01T04:46:18.216Z,32.35
2019-05-01T04:48:47.718Z,31.73
2019-05-01T04:51:18.647Z,28.95
2019-05-01T04:53:48.735Z,29.67
2019-05-01T04:56:18.442Z,30.88
2019-05-01T04:58:48.192Z,30.43
2019-05-01T05:01:17.823Z,33.53
2019-05-01T05:03:47.593Z,32.45
2019-05-01T05:06:17.775Z,32.70
2019-05-01T05:08:47.708Z,28.85
2019-05-01T05:11:21.087Z,31.85
2019-05-01T05:13:52.272Z,32.70
2019-05-01T05:16:23.420Z,30.32
2019-05-01T05:18:52.858Z,30.92
2019-05-01T05:21:22.809Z,30.05
2019-05-01T05:23:52.212Z,29.70
2019-05-01T05:26:21.982Z,29.30
2019-05-01T05:28:53.471Z,30.15
2019-05-01T05:31:25.968Z,30.05
2019-05-01T05:33:58.842Z,30.37
2019-05-01T05:36:33.066Z,28.87
2019-05-01T05:39:13.131Z,30.77
2019-05-01T05:41:44.327Z,26.27
2019-05-01T05:44:14.000Z,27.77
2019-05-01T05:46:43.378Z,27.25
2019-05-01T05:49:12.785Z,29.10
2019-05-01T05:51:46.998Z,34.10
2019-05-01T05:54:39.825Z,30.02
2019-05-01T05:57:21.331Z,28.00
2019-05-01T05:59:55.788Z,31.17
2019-05-01T06:02:31.973Z,27.93
2019-05-01T06:05:19.171Z,29.10
2019-05-01T06:08:09.631Z,30.77
2019-05-01T06:10:53.683Z,28.25
2019-05-01T06:13:23.702Z,27.85
2019-05-01T06:16:07.261Z,26.52
2019-05-01T06:18:39.386Z,28.80
2019-05-01T06:21:22.992Z,28.83
2019-05-01T06:23:57.472Z,29.63
2019-05-01T06:26:32.114Z,29.32
2019-05-01T06:29:01.968Z,30.20
2019-05-01T06:31:32.773Z,30.40
2019-05-01T06:34:02.918Z,27.52
2019-05-01T06:36:33.128Z,26.93
2019-05-01T06:39:06.780Z,25.43
2019-05-01T06:41:42.701Z,27.82
2019-05-01T06:44:19.501Z,27.95
2019-05-01T06:47:03.296Z,29.25
2019-05-01T06:49:49.897Z,26.20
2019-05-01T06:52:24.978Z,29.87
2019-05-01T06:54:53.595Z,31.80
2019-05-01T06:57:25.309Z,31.30
2019-05-01T06:59:57.024Z,31.52
2019-05-01T07:02:29.760Z,30.30
2019-05-01T07:05:02.098Z,29.70
2019-05-01T07:07:33.344Z,30.88
2019-05-01T07:10:05.238Z,31.97
2019-05-01T07:12:35.985Z,29.12
2019-05-01T07:15:08.748Z,30.62
2019-05-01T07:17:38.484Z,31.82
2019-05-01T07:20:11.924Z,27.55
2019-05-01T07:22:42.190Z,29.60
2019-05-01T07:25:12.407Z,30.97
2019-05-01T07:27:42.188Z,33.30
2019-05-01T07:30:30.344Z,30.00
2019-05-01T07:33:00.328Z,30.10
2019-05-01T07:35:32.896Z,32.60
2019-05-01T07:38:02.242Z,33.60
2019-05-01T07:40:32.562Z,33.45
2019-05-01T07:43:03.932Z,32.67
2019-05-01T07:45:38.989Z,33.65
2019-05-01T07:48:09.946Z,33.50
2019-05-01T07:50:39.878Z,35.08
2019-05-01T07:53:09.294Z,32.38
2019-05-01T07:55:39.065Z,34.65
2019-05-01T07:58:15.219Z,33.90
2019-05-01T08:01:00.655Z,35.70
2019-05-01T08:03:30.358Z,32.45
2019-05-01T08:05:59.654Z,34.43
2019-05-01T08:08:29.007Z,34.10
2019-05-01T08:10:59.897Z,34.60
2019-05-01T08:13:30.584Z,35.20
2019-05-01T08:16:02.071Z,33.10
2019-05-01T08:18:38.820Z,33.83
2019-05-01T08:21:27.484Z,32.80
2019-05-01T08:23:57.215Z,34.55
2019-05-01T08:26:26.549Z,34.85
2019-05-01T08:29:08.143Z,36.20
2019-05-01T08:31:48.013Z,33.33
2019-05-01T08:34:33.810Z,31.10
2019-05-01T08:37:03.149Z,35.45
2019-05-01T08:39:32.471Z,34.98
2019-05-01T08:42:06.780Z,35.10
2019-05-01T08:44:35.773Z,30.70
2019-05-01T08:47:20.751Z,32.30
2019-05-01T08:49:51.724Z,37.17
2019-05-01T08:52:21.283Z,33.45
2019-05-01T08:54:50.723Z,32.60
2019-05-01T08:57:20.037Z,34.00
2019-05-01T08:59:49.336Z,32.90
2019-05-01T09:02:18.681Z,38.88
2019-05-01T09:04:48.084Z,37.33
2019-05-01T09:07:19.195Z,37.50
2019-05-01T09:09:48.863Z,38.58
2019-05-01T09:12:18.157Z,36.73
2019-05-01T09:14:47.463Z,35.13
2019-05-01T09:17:17.032Z,35.55
2019-05-01T09:19:46.325Z,35.75
2019-05-01T09:22:15.662Z,36.45
2019-05-01T09:24:46.277Z,37.20
2019-05-01T09:27:24.020Z,35.98
2019-05-01T09:29:58.515Z,35.25
2019-05-01T09:32:27.810Z,34.27
2019-05-01T09:34:58.443Z,35.52
2019-05-01T09:37:28.457Z,37.15
2019-05-01T09:39:58.065Z,36.28
2019-05-01T09:42:27.398Z,35.88
2019-05-01T09:44:56.787Z,36.50
2019-05-01T09:47:27.067Z,35.30
2019-05-01T09:49:56.355Z,34.20
2019-05-01T09:52:27.344Z,35.05
2019-05-01T09:54:58.561Z,37.45
2019-05-01T09:57:28.184Z,37.30
2019-05-01T09:59:59.273Z,35.03
2019-05-01T10:02:28.565Z,37.67
2019-05-01T10:05:02.098Z,37.65
2019-05-01T10:07:30.767Z,38.88
2019-05-01T10:10:00.620Z,37.03
2019-05-01T10:12:29.922Z,40.33
2019-05-01T10:14:59.312Z,35.52
2019-05-01T10:17:28.612Z,38.30
2019-05-01T10:19:57.920Z,37.38
2019-05-01T10:22:27.290Z,36.77
2019-05-01T10:24:56.626Z,38.58
2019-05-01T10:27:30.801Z,38.70
2019-05-01T10:30:03.188Z,36.60
2019-05-01T10:32:34.097Z,36.53
2019-05-01T10:35:21.072Z,37.67
2019-05-01T10:37:50.502Z,39.35
2019-05-01T10:40:22.312Z,38.02
2019-05-01T10:42:51.283Z,38.35
2019-05-01T10:45:21.901Z,40.10
2019-05-01T10:47:51.202Z,40.80
2019-05-01T10:50:20.590Z,39.38
2019-05-01T10:52:49.901Z,38.58
2019-05-01T10:55:19.543Z,43.92
2019-05-01T10:57:48.931Z,38.10
2019-05-01T11:00:20.428Z,42.08
2019-05-01T11:02:50.006Z,43.45
2019-05-01T11:05:19.736Z,40.75
2019-05-01T11:07:49.101Z,40.12
2019-05-01T11:10:18.419Z,38.63
2019-05-01T11:12:47.780Z,40.45
2019-05-01T11:15:18.653Z,39.85
2019-05-01T11:17:47.950Z,41.10
2019-05-01T11:20:17.302Z,39.75
2019-05-01T11:22:46.600Z,38.05
2019-05-01T11:25:17.725Z,39.60
2019-05-01T11:27:50.176Z,40.35
2019-05-01T11:30:19.544Z,39.92
2019-05-01T11:33:06.602Z,42.98
2019-05-01T11:36:08.354Z,40.35
2019-05-01T11:38:46.645Z,40.58
2019-05-01T11:41:17.599Z,40.50
2019-05-01T11:43:46.905Z,41.58
2019-05-01T11:46:16.260Z,44.73
2019-05-01T11:48:45.565Z,41.25
2019-05-01T11:51:15.211Z,49.85
2019-05-01T11:53:44.598Z,40.58
2019-05-01T11:56:13.909Z,46.68
2019-05-01T11:58:43.216Z,44.45
2019-05-01T12:01:14.204Z,43.35
2019-05-01T12:03:43.515Z,45.23
2019-05-01T12:06:22.656Z,43.65
2019-05-01T12:08:44.218Z,47.62
2019-05-01T12:11:15.446Z,45.95
2019-05-01T12:13:44.786Z,44.93
2019-05-01T12:16:15.842Z,43.78
2019-05-01T12:18:45.157Z,43.30
2019-05-01T12:21:14.459Z,39.30
2019-05-01T12:23:43.874Z,40.83
2019-05-01T12:26:13.171Z,40.98
2019-05-01T12:28:42.487Z,42.05
2019-05-01T12:31:11.878Z,42.30
2019-05-01T12:33:41.185Z,42.80
2019-05-01T12:36:10.559Z,44.03
2019-05-01T12:38:39.938Z,43.52
2019-05-01T12:41:19.750Z,42.55
2019-05-01T12:43:49.103Z,40.88
2019-05-01T12:46:34.702Z,44.45
2019-05-01T12:49:04.597Z,42.40
2019-05-01T12:51:34.972Z,44.53
2019-05-01T12:54:12.076Z,43.83
2019-05-01T12:56:57.866Z,44.73
2019-05-01T12:59:27.215Z,45.58
2019-05-01T13:01:56.843Z,46.13
2019-05-01T13:04:26.151Z,44.45
2019-05-01T13:06:58.616Z,44.38
2019-05-01T13:09:28.058Z,45.00
2019-05-01T13:11:57.357Z,40.23
2019-05-01T13:14:26.721Z,44.73
2019-05-01T13:16:56.034Z,45.50
2019-05-01T13:19:25.323Z,48.40
2019-05-01T13:21:54.675Z,46.85
2019-05-01T13:24:25.629Z,46.85
2019-05-01T13:26:56.809Z,42.43
2019-05-01T13:29:33.513Z,44.20
2019-05-01T13:32:16.598Z,45.90
2019-05-01T13:34:45.947Z,50.15
2019-05-01T13:37:15.258Z,45.78
2019-05-01T13:39:44.809Z,49.20
2019-05-01T13:42:14.190Z,47.13
2019-05-01T13:44:43.497Z,48.10
2019-05-01T13:47:12.806Z,46.85
2019-05-01T13:49:42.194Z,45.48
2019-05-01T13:52:11.537Z,49.95
2019-05-01T13:54:40.839Z,48.28
2019-05-01T13:57:10.957Z,55.52
2019-05-01T13:59:40.298Z,45.85
2019-05-01T14:02:09.598Z,52.83
2019-05-01T14:04:39.138Z,52.13
2019-05-01T14:07:16.423Z,45.75
2019-05-01T14:09:40.080Z,54.98
2019-05-01T14:12:09.704Z,48.23
2019-05-01T14:14:39.007Z,45.40
2019-05-01T14:17:08.348Z,53.00
2019-05-01T14:19:39.330Z,48.17
2019-05-01T14:22:28.245Z,47.88
2019-05-01T14:24:59.550Z,50.03
2019-05-01T14:27:28.846Z,50.12
2019-05-01T14:30:00.853Z,51.05
2019-05-01T14:32:30.208Z,49.33
2019-05-01T14:34:59.510Z,51.55
2019-05-01T14:37:29.957Z,53.23
2019-05-01T14:39:59.638Z,48.38
2019-05-01T14:42:28.973Z,52.40
2019-05-01T14:44:58.282Z,51.60
2019-05-01T14:47:27.867Z,52.15
2019-05-01T14:49:57.467Z,51.90
2019-05-01T14:56:14.810Z,52.17
2019-05-01T14:58:44.113Z,52.23
2019-05-01T15:01:13.414Z,56.85
2019-05-01T15:03:42.763Z,54.98
2019-05-01T15:06:12.143Z,52.90
2019-05-01T15:08:41.435Z,57.65
2019-05-01T15:11:11.123Z,58.23
2019-05-01T15:13:42.373Z,55.03
2019-05-01T15:16:19.061Z,58.23
2019-05-01T15:18:50.011Z,60.58
2019-05-01T15:21:19.390Z,49.23
2019-05-01T15:23:53.780Z,54.10
2019-05-01T15:26:19.789Z,54.55
2019-05-01T15:28:49.170Z,50.60
2019-05-01T15:31:18.514Z,58.30
2019-05-01T15:33:47.824Z,52.17
2019-05-01T15:36:17.122Z,52.48
2019-05-01T15:38:46.474Z,59.70
2019-05-01T15:41:23.110Z,53.02
2019-05-01T15:44:03.040Z,53.25
2019-05-01T15:46:33.608Z,54.35
2019-05-01T15:49:02.982Z,57.58
2019-05-01T15:51:32.344Z,53.58
2019-05-01T15:54:01.631Z,51.73
2019-05-01T15:56:30.941Z,50.10
2019-05-01T15:59:00.296Z,50.65
2019-05-01T16:01:29.601Z,50.17
2019-05-01T16:03:58.899Z,54.63
2019-05-01T16:06:28.246Z,52.17
2019-05-01T16:08:57.554Z,53.02
2019-05-01T16:11:28.843Z,51.42
2019-05-01T16:13:58.198Z,55.45
2019-05-01T16:16:27.503Z,53.65
2019-05-01T16:18:56.831Z,52.65
2019-05-01T16:21:26.164Z,51.35
2019-05-01T16:23:55.740Z,53.20
2019-05-01T16:26:25.035Z,53.30
2019-05-01T16:28:54.402Z,52.65
2019-05-01T16:31:23.701Z,51.88
2019-05-01T16:33:53.007Z,51.28
2019-05-01T16:36:22.362Z,53.60
2019-05-01T16:39:02.262Z,50.90
2019-05-01T16:41:32.396Z,56.92
2019-05-01T16:44:02.019Z,52.53
2019-05-01T16:46:31.552Z,55.45
2019-05-01T16:49:01.191Z,52.62
2019-05-01T16:51:30.563Z,58.20
2019-05-01T16:53:59.874Z,53.60
2019-05-01T16:56:32.963Z,56.05
2019-05-01T17:03:05.319Z,53.20
2019-05-01T17:05:38.667Z,55.33
2019-05-01T17:08:18.378Z,55.75
2019-05-01T17:10:49.707Z,52.08
2019-05-01T17:13:19.012Z,51.83
2019-05-01T17:15:50.049Z,51.53
2019-05-01T17:18:19.900Z,56.55
2019-05-01T17:20:49.195Z,56.13
2019-05-01T17:23:18.540Z,52.67
2019-05-01T17:25:48.083Z,50.90
2019-05-01T17:28:17.391Z,49.80
2019-05-01T17:30:49.527Z,59.67
2019-05-01T17:33:20.752Z,53.70
2019-05-01T17:35:50.189Z,50.70
2019-05-01T17:38:19.794Z,51.92
2019-05-01T17:40:51.968Z,50.50
2019-05-01T17:43:20.155Z,53.02
2019-05-01T17:45:49.856Z,51.33
2019-05-01T17:48:19.218Z,55.05
2019-05-01T17:50:48.508Z,51.68
2019-05-01T17:53:17.931Z,52.85
2019-05-01T17:55:47.233Z,50.45
2019-05-01T17:58:16.543Z,52.85
2019-05-01T18:00:47.515Z,52.10
2019-05-01T18:03:18.464Z,54.93
2019-05-01T18:06:05.722Z,54.90
2019-05-01T18:08:35.836Z,55.05
2019-05-01T18:11:09.263Z,55.05
2019-05-01T18:13:36.359Z,55.15
2019-05-01T18:16:05.637Z,57.10
2019-05-01T18:18:35.007Z,52.58
2019-05-01T18:21:04.424Z,57.95
2019-05-01T18:23:53.096Z,55.52
2019-05-01T18:26:26.851Z,64.70
2019-05-01T18:29:09.666Z,61.50
2019-05-01T18:31:39.079Z,65.10
2019-05-01T18:34:08.708Z,56.23
2019-05-01T18:36:48.386Z,53.73
2019-05-01T18:39:35.493Z,49.55
2019-05-01T18:42:06.878Z,55.38
2019-05-01T18:44:36.248Z,53.02
2019-05-01T18:47:06.222Z,54.27
2019-05-01T18:49:35.542Z,55.03
2019-05-01T18:52:05.641Z,52.27
2019-05-01T18:54:36.337Z,61.42
2019-05-01T18:57:06.562Z,57.98
2019-05-01T18:59:35.929Z,58.17
2019-05-01T19:02:05.375Z,59.18
2019-05-01T19:04:34.795Z,57.55
2019-05-01T19:07:04.709Z,60.98
2019-05-01T19:09:36.677Z,60.15
2019-05-01T19:12:07.399Z,60.12
2019-05-01T19:14:36.676Z,60.12
2019-05-01T19:17:06.069Z,66.20
2019-05-01T19:19:35.510Z,59.70
2019-05-01T19:22:06.149Z,67.15
2019-05-01T19:24:38.119Z,63.98
2019-05-01T19:27:06.591Z,61.18
2019-05-01T19:29:35.898Z,65.10
2019-05-01T19:32:06.207Z,59.38
2019-05-01T19:34:35.855Z,65.30
2019-05-01T19:37:05.507Z,66.10
2019-05-01T19:39:43.623Z,65.52
2019-05-01T19:42:06.080Z,68.92
2019-05-01T19:44:35.719Z,67.97
2019-05-01T19:47:08.226Z,69.40
2019-05-01T19:49:37.886Z,64.30
2019-05-01T19:52:07.629Z,64.45
2019-05-01T19:54:36.928Z,63.08
2019-05-01T19:57:06.416Z,65.28
2019-05-01T19:59:35.792Z,68.90
2019-05-01T20:02:07.102Z,58.50
2019-05-01T20:04:36.431Z,62.83
2019-05-01T20:07:10.561Z,71.75
2019-05-01T20:09:37.065Z,66.67
2019-05-01T20:12:06.565Z,64.82
2019-05-01T20:14:36.825Z,70.12
2019-05-01T20:17:10.111Z,64.97
2019-05-01T20:19:39.811Z,64.75
2019-05-01T20:22:09.117Z,63.95
2019-05-01T20:24:39.862Z,64.25
2019-05-01T20:27:09.520Z,64.92
2019-05-01T20:29:38.837Z,61.33
2019-05-01T20:32:08.467Z,68.35
2019-05-01T20:34:37.815Z,68.17
2019-05-01T20:37:07.120Z,66.77
2019-05-01T20:39:36.422Z,70.25
2019-05-01T20:42:06.193Z,67.20
2019-05-01T20:44:35.790Z,68.75
2019-05-01T20:47:05.164Z,67.15
2019-05-01T20:49:36.461Z,67.45
2019-05-01T20:52:06.147Z,65.70
2019-05-01T20:54:35.452Z,68.62
2019-05-01T20:57:06.440Z,65.85
2019-05-01T20:59:39.246Z,66.92
2019-05-01T21:02:08.127Z,64.20
2019-05-01T21:04:45.447Z,70.28
2019-05-01T21:07:19.832Z,69.67
2019-05-01T21:09:56.830Z,62.05
2019-05-01T21:12:20.439Z,61.53
2019-05-01T21:14:51.070Z,64.10
2019-05-01T21:17:20.599Z,62.58
2019-05-01T21:19:49.941Z,61.55
2019-05-01T21:22:19.260Z,62.65
2019-05-01T21:24:48.566Z,61.00
2019-05-01T21:27:18.149Z,62.67
2019-05-01T21:29:47.450Z,62.95
2019-05-01T21:32:18.182Z,57.17
2019-05-01T21:34:48.107Z,57.35
2019-05-01T21:37:17.408Z,56.75
2019-05-01T21:39:46.719Z,49.77
2019-05-01T21:42:16.417Z,48.23
2019-05-01T21:44:46.022Z,50.40
2019-05-01T21:47:18.097Z,50.90
2019-05-01T21:49:47.440Z,52.33
2019-05-01T21:52:17.876Z,45.90
2019-05-01T21:54:50.049Z,48.80
2019-05-01T21:57:19.248Z,48.92
2019-05-01T21:59:48.805Z,47.95
2019-05-01T22:02:18.188Z,45.17
2019-05-01T22:04:47.540Z,43.80
2019-05-01T22:07:16.842Z,42.05
2019-05-01T22:09:50.438Z,44.50
2019-05-01T22:12:17.727Z,42.53
2019-05-01T22:15:00.887Z,41.80
2019-05-01T22:17:40.606Z,44.38
2019-05-01T22:20:11.754Z,45.60
2019-05-01T22:22:43.989Z,44.77
2019-05-01T22:25:18.648Z,42.10
2019-05-01T22:27:49.887Z,38.80
2019-05-01T22:30:36.505Z,39.27
2019-05-01T22:33:06.236Z,42.00
2019-05-01T22:35:40.089Z,37.35
2019-05-01T22:38:09.429Z,41.63
2019-05-01T22:40:49.342Z,37.98
2019-05-01T22:43:18.961Z,40.70
2019-05-01T22:45:48.932Z,40.12
2019-05-01T22:48:18.221Z,40.28
2019-05-01T22:50:48.934Z,38.10
2019-05-01T22:53:18.231Z,39.70
2019-05-01T22:55:47.525Z,39.50
2019-05-01T22:58:16.893Z,42.62
2019-05-01T23:00:48.464Z,39.35
2019-05-01T23:03:28.312Z,42.00
2019-05-01T23:05:57.677Z,42.43
2019-05-01T23:08:27.230Z,44.15
2019-05-01T23:10:56.574Z,38.48
2019-05-01T23:13:25.879Z,42.45
2019-05-01T23:15:56.384Z,42.55
2019-05-01T23:18:26.787Z,43.68
2019-05-01T23:20:56.095Z,44.40
2019-05-01T23:23:25.465Z,42.98
2019-05-01T23:25:55.104Z,41.85
2019-05-01T23:28:24.395Z,43.87
2019-05-01T23:30:54.068Z,42.70
2019-05-01T23:33:23.482Z,39.18
2019-05-01T23:35:52.775Z,46.55
2019-05-01T23:38:22.148Z,40.92
2019-05-01T23:40:52.904Z,43.83
2019-05-01T23:43:34.762Z,44.88
2019-05-01T23:46:04.638Z,41.65
2019-05-01T23:48:33.935Z,41.05
2019-05-01T23:51:03.239Z,40.52
2019-05-01T23:53:33.271Z,43.68
2019-05-01T23:56:02.563Z,39.83
2019-05-01T23:58:32.175Z,43.33
